createdAt,value
2017-12-24T00:00:28.560Z,8.20
2017-12-24T00:02:56.941Z,8.10
2017-12-24T00:05:24.377Z,8.10
2017-12-24T00:07:51.837Z,8.10
2017-12-24T00:10:19.307Z,8.10
2017-12-24T00:12:47.737Z,8.10
2017-12-24T00:15:15.297Z,8.10
2017-12-24T00:17:43.484Z,8.10
2017-12-24T00:20:10.924Z,8.20
2017-12-24T00:22:42.126Z,8.10
2017-12-24T00:25:10.945Z,8.20
2017-12-24T00:27:39.183Z,8.10
2017-12-24T00:30:06.617Z,8.10
2017-12-24T00:32:34.089Z,8.10
2017-12-24T00:35:01.534Z,8.10
2017-12-24T00:37:29.006Z,8.10
2017-12-24T00:39:57.899Z,8.10
2017-12-24T00:42:25.333Z,8.10
2017-12-24T00:44:52.776Z,8.10
2017-12-24T00:47:20.236Z,8.10
2017-12-24T00:49:47.706Z,8.10
2017-12-24T00:52:15.182Z,8.10
2017-12-24T00:54:42.649Z,8.10
2017-12-24T00:57:10.193Z,8.10
2017-12-24T00:59:37.662Z,8.10
2017-12-24T01:02:05.099Z,8.10
2017-12-24T01:04:32.536Z,8.10
2017-12-24T01:07:01.000Z,8.10
2017-12-24T01:09:29.207Z,8.10
2017-12-24T01:11:56.757Z,8.10
2017-12-24T01:14:24.185Z,8.10
2017-12-24T01:16:52.412Z,8.10
2017-12-24T01:19:19.856Z,8.10
2017-12-24T01:21:47.370Z,8.10
2017-12-24T01:24:14.828Z,8.10
2017-12-24T01:26:42.264Z,8.10
2017-12-24T01:29:09.952Z,8.10
2017-12-24T01:31:38.169Z,8.10
2017-12-24T01:34:05.610Z,8.10
2017-12-24T01:36:33.077Z,8.10
2017-12-24T01:39:00.509Z,8.10
2017-12-24T01:41:30.734Z,8.10
2017-12-24T01:43:58.946Z,8.10
2017-12-24T01:46:26.521Z,8.10
2017-12-24T01:48:53.990Z,8.10
2017-12-24T01:51:21.553Z,8.10
2017-12-24T01:53:48.993Z,8.00
2017-12-24T01:56:16.457Z,8.00
2017-12-24T01:58:43.942Z,8.00
2017-12-24T02:01:11.376Z,8.00
2017-12-24T02:03:38.825Z,8.00
2017-12-24T02:06:06.326Z,8.00
2017-12-24T02:08:34.540Z,8.00
2017-12-24T02:11:02.010Z,8.00
2017-12-24T02:13:29.477Z,8.00
2017-12-24T02:15:56.910Z,8.00
2017-12-24T02:18:24.377Z,8.00
2017-12-24T02:20:51.828Z,8.00
2017-12-24T02:23:21.281Z,8.00
2017-12-24T02:25:48.737Z,8.00
2017-12-24T02:28:16.349Z,8.00
2017-12-24T02:30:43.777Z,8.00
2017-12-24T02:33:12.002Z,8.00
2017-12-24T02:35:39.456Z,8.00
2017-12-24T02:38:06.921Z,8.00
2017-12-24T02:40:34.353Z,8.00
2017-12-24T02:43:01.949Z,8.00
2017-12-24T02:45:29.380Z,8.00
2017-12-24T02:48:21.012Z,8.00
2017-12-24T02:50:48.455Z,8.00
2017-12-24T02:53:15.924Z,8.00
2017-12-24T02:55:43.366Z,8.00
2017-12-24T02:58:10.978Z,8.00
2017-12-24T03:00:38.409Z,8.00
2017-12-24T03:03:09.697Z,8.00
2017-12-24T03:05:37.908Z,8.00
2017-12-24T03:08:07.025Z,8.00
2017-12-24T03:10:34.462Z,8.00
2017-12-24T03:13:01.921Z,8.00
2017-12-24T03:15:29.521Z,8.00
2017-12-24T03:17:57.004Z,8.00
2017-12-24T03:20:25.215Z,8.00
2017-12-24T03:22:52.653Z,8.00
2017-12-24T03:25:20.116Z,8.00
2017-12-24T03:27:47.552Z,8.00
2017-12-24T03:30:15.911Z,8.00
2017-12-24T03:32:43.341Z,8.00
2017-12-24T03:35:10.776Z,8.00
2017-12-24T03:37:38.336Z,8.00
2017-12-24T03:40:05.782Z,8.00
2017-12-24T03:42:45.273Z,8.00
2017-12-24T03:45:12.713Z,8.00
2017-12-24T03:47:40.182Z,8.00
2017-12-24T03:50:07.626Z,8.00
2017-12-24T03:52:35.080Z,8.00
2017-12-24T03:55:02.520Z,8.00
2017-12-24T03:57:30.128Z,8.00
2017-12-24T03:59:58.506Z,8.00
2017-12-24T04:02:25.986Z,8.00
2017-12-24T04:04:54.190Z,8.00
2017-12-24T04:07:21.637Z,8.00
2017-12-24T04:09:49.099Z,8.00
2017-12-24T04:12:16.531Z,8.00
2017-12-24T04:14:44.844Z,8.00
2017-12-24T04:17:12.292Z,8.00
2017-12-24T04:19:39.762Z,8.00
2017-12-24T04:22:07.204Z,8.00
2017-12-24T04:24:34.678Z,8.00
2017-12-24T04:27:02.161Z,8.00
2017-12-24T04:29:29.628Z,8.00
2017-12-24T04:31:57.068Z,8.00
2017-12-24T04:34:24.641Z,8.00
2017-12-24T04:36:52.069Z,8.00
2017-12-24T04:39:20.260Z,8.00
2017-12-24T04:41:47.732Z,8.00
2017-12-24T04:44:15.165Z,8.00
2017-12-24T04:46:46.434Z,8.10
2017-12-24T04:49:14.819Z,8.00
2017-12-24T04:51:42.264Z,8.00
2017-12-24T04:54:13.549Z,8.00
2017-12-24T04:56:41.754Z,8.10
2017-12-24T04:59:09.223Z,8.00
2017-12-24T05:01:36.684Z,8.00
2017-12-24T05:04:04.120Z,8.00
2017-12-24T05:06:31.566Z,8.00
2017-12-24T05:09:00.097Z,8.00
2017-12-24T05:11:27.536Z,8.00
2017-12-24T05:13:54.981Z,8.00
2017-12-24T05:16:22.448Z,8.00
2017-12-24T05:18:49.910Z,8.00
2017-12-24T05:21:17.344Z,8.00
2017-12-24T05:23:44.811Z,8.00
2017-12-24T05:26:12.447Z,8.00
2017-12-24T05:28:40.832Z,8.00
2017-12-24T05:31:08.285Z,8.00
2017-12-24T05:33:37.467Z,8.00
2017-12-24T05:36:04.924Z,8.00
2017-12-24T05:38:32.362Z,8.00
2017-12-24T05:40:59.837Z,8.00
2017-12-24T05:43:27.283Z,8.00
2017-12-24T05:45:54.724Z,8.00
2017-12-24T05:48:22.329Z,8.00
2017-12-24T05:50:50.539Z,8.00
2017-12-24T05:53:26.849Z,8.00
2017-12-24T05:55:54.337Z,8.00
2017-12-24T05:58:21.776Z,8.00
2017-12-24T06:00:49.992Z,8.00
2017-12-24T06:03:17.452Z,8.00
2017-12-24T06:05:44.888Z,8.00
2017-12-24T06:08:12.417Z,8.00
2017-12-24T06:10:39.852Z,8.00
2017-12-24T06:13:07.322Z,8.00
2017-12-24T06:15:34.767Z,8.00
2017-12-24T06:18:02.234Z,8.00
2017-12-24T06:20:29.682Z,8.00
2017-12-24T06:22:57.144Z,8.00
2017-12-24T06:25:24.580Z,8.00
2017-12-24T06:27:53.000Z,8.00
2017-12-24T06:30:20.445Z,8.00
2017-12-24T06:32:47.909Z,8.00
2017-12-24T06:35:15.345Z,8.00
2017-12-24T06:37:42.813Z,8.00
2017-12-24T06:40:10.286Z,8.00
2017-12-24T06:42:37.745Z,8.10
2017-12-24T06:45:05.477Z,8.10
2017-12-24T06:47:32.930Z,8.10
2017-12-24T06:50:00.373Z,8.10
2017-12-24T06:52:27.885Z,8.10
2017-12-24T06:54:55.349Z,8.10
2017-12-24T06:57:23.604Z,8.10
2017-12-24T06:59:51.215Z,8.00
2017-12-24T07:02:22.724Z,8.10
2017-12-24T07:04:50.190Z,8.00
2017-12-24T07:07:17.654Z,8.10
2017-12-24T07:09:45.861Z,8.00
2017-12-24T07:12:13.329Z,8.00
2017-12-24T07:14:41.750Z,8.00
2017-12-24T07:17:09.369Z,8.00
2017-12-24T07:19:36.805Z,8.00
2017-12-24T07:22:04.297Z,8.00
2017-12-24T07:24:31.734Z,8.00
2017-12-24T07:26:59.171Z,8.00
2017-12-24T07:29:27.394Z,8.00
2017-12-24T07:31:54.828Z,8.00
2017-12-24T07:34:22.384Z,8.00
2017-12-24T07:36:49.820Z,8.00
2017-12-24T07:39:18.066Z,8.00
2017-12-24T07:41:57.467Z,8.00
2017-12-24T07:44:24.945Z,8.00
2017-12-24T07:46:52.391Z,8.00
2017-12-24T07:49:19.820Z,8.00
2017-12-24T07:51:47.457Z,8.00
2017-12-24T07:54:21.449Z,8.00
2017-12-24T07:56:48.958Z,8.00
2017-12-24T07:59:16.588Z,8.00
2017-12-24T08:01:44.812Z,8.00
2017-12-24T08:04:12.264Z,8.00
2017-12-24T08:06:39.773Z,8.00
2017-12-24T08:09:07.216Z,8.00
2017-12-24T08:11:34.678Z,8.00
2017-12-24T08:14:02.141Z,8.00
2017-12-24T08:16:29.613Z,8.00
2017-12-24T08:18:57.065Z,8.00
2017-12-24T08:21:24.533Z,8.00
2017-12-24T08:23:53.712Z,8.00
2017-12-24T08:26:21.324Z,7.90
2017-12-24T08:28:48.774Z,8.00
2017-12-24T08:31:16.209Z,8.00
2017-12-24T08:33:44.454Z,8.00
2017-12-24T08:36:11.970Z,8.00
2017-12-24T08:38:39.517Z,8.00
2017-12-24T08:41:07.981Z,8.00
2017-12-24T08:43:36.225Z,7.90
2017-12-24T08:46:03.667Z,8.00
2017-12-24T08:48:31.129Z,8.00
2017-12-24T08:50:59.499Z,8.00
2017-12-24T08:53:27.029Z,8.00
2017-12-24T08:55:56.289Z,8.00
2017-12-24T08:58:23.836Z,8.00
2017-12-24T09:00:52.419Z,8.00
2017-12-24T09:03:19.906Z,8.00
2017-12-24T09:05:48.111Z,8.00
2017-12-24T09:08:15.559Z,8.00
2017-12-24T09:10:43.241Z,8.00
2017-12-24T09:13:10.709Z,8.00
2017-12-24T09:15:38.150Z,8.00
2017-12-24T09:18:05.600Z,8.00
2017-12-24T09:20:33.059Z,8.00
2017-12-24T09:23:00.529Z,8.00
2017-12-24T09:25:28.201Z,8.00
2017-12-24T09:27:58.661Z,8.00
2017-12-24T09:30:26.152Z,8.00
2017-12-24T09:32:54.356Z,8.00
2017-12-24T09:35:22.777Z,8.00
2017-12-24T09:37:50.247Z,8.00
2017-12-24T09:40:18.457Z,8.00
2017-12-24T09:42:45.973Z,8.00
2017-12-24T09:45:16.390Z,8.00
2017-12-24T09:47:55.809Z,8.00
2017-12-24T09:50:23.277Z,8.00
2017-12-24T09:52:50.712Z,8.00
2017-12-24T09:55:19.122Z,8.00
2017-12-24T09:57:46.923Z,8.00
2017-12-24T10:00:15.257Z,8.00
2017-12-24T10:02:42.709Z,8.00
2017-12-24T10:05:10.144Z,8.00
2017-12-24T10:07:37.610Z,8.00
2017-12-24T10:10:05.097Z,8.00
2017-12-24T10:12:32.533Z,8.10
2017-12-24T10:15:00.198Z,8.10
2017-12-24T10:17:27.641Z,8.00
2017-12-24T10:19:55.093Z,8.10
2017-12-24T10:22:22.580Z,8.10
2017-12-24T10:24:50.045Z,8.10
2017-12-24T10:27:19.552Z,8.10
2017-12-24T10:29:47.017Z,8.10
2017-12-24T10:32:14.448Z,8.10
2017-12-24T10:34:42.041Z,8.10
2017-12-24T10:37:09.482Z,8.10
2017-12-24T10:39:36.940Z,8.10
2017-12-24T10:42:04.476Z,8.10
2017-12-24T10:44:34.853Z,8.10
2017-12-24T10:47:05.551Z,8.20
2017-12-24T10:49:33.438Z,8.10
2017-12-24T10:52:00.876Z,8.20
2017-12-24T10:54:28.316Z,8.20
2017-12-24T10:56:56.197Z,8.20
2017-12-24T10:59:23.633Z,8.20
2017-12-24T11:01:51.105Z,8.20
2017-12-24T11:04:18.565Z,8.20
2017-12-24T11:06:45.997Z,8.20
2017-12-24T11:09:13.945Z,8.20
2017-12-24T11:11:43.313Z,8.20
2017-12-24T11:14:10.749Z,8.20
2017-12-24T11:16:38.209Z,8.20
2017-12-24T11:19:05.653Z,8.20
2017-12-24T11:21:33.990Z,8.20
2017-12-24T11:24:02.205Z,8.20
2017-12-24T11:26:29.921Z,8.20
2017-12-24T11:28:59.325Z,8.20
2017-12-24T11:31:27.532Z,8.20
2017-12-24T11:33:54.957Z,8.30
2017-12-24T11:36:23.185Z,8.30
2017-12-24T11:38:50.677Z,8.20
2017-12-24T11:41:18.110Z,8.30
2017-12-24T11:43:45.572Z,8.30
2017-12-24T11:46:17.998Z,8.30
2017-12-24T11:48:45.432Z,8.30
2017-12-24T11:51:14.612Z,8.30
2017-12-24T11:53:42.101Z,8.30
2017-12-24T11:56:10.306Z,8.30
2017-12-24T11:58:37.742Z,8.30
2017-12-24T12:01:05.458Z,8.30
2017-12-24T12:03:32.934Z,8.30
2017-12-24T12:06:00.365Z,8.30
2017-12-24T12:08:27.934Z,8.30
2017-12-24T12:10:55.385Z,8.20
2017-12-24T12:13:22.825Z,8.20
2017-12-24T12:15:50.321Z,8.20
2017-12-24T12:18:17.761Z,8.20
2017-12-24T12:20:45.223Z,8.20
2017-12-24T12:23:35.593Z,8.20
2017-12-24T12:26:03.204Z,8.20
2017-12-24T12:28:31.557Z,8.20
2017-12-24T12:30:59.018Z,8.20
2017-12-24T12:33:26.477Z,8.20
2017-12-24T12:35:53.917Z,8.20
2017-12-24T12:38:22.353Z,8.20
2017-12-24T12:40:49.821Z,8.20
2017-12-24T12:43:18.684Z,8.20
2017-12-24T12:45:46.121Z,8.20
2017-12-24T12:48:13.590Z,8.20
2017-12-24T12:50:41.106Z,8.20
2017-12-24T12:53:08.537Z,8.20
2017-12-24T12:55:35.973Z,8.20
2017-12-24T12:58:04.201Z,8.20
2017-12-24T13:00:31.758Z,8.20
2017-12-24T13:02:59.217Z,8.20
2017-12-24T13:05:26.641Z,8.20
2017-12-24T13:07:54.118Z,8.10
2017-12-24T13:10:21.545Z,8.10
2017-12-24T13:12:49.760Z,8.10
2017-12-24T13:15:17.330Z,8.10
2017-12-24T13:17:44.768Z,8.10
2017-12-24T13:20:12.197Z,8.10
2017-12-24T13:22:39.657Z,8.10
2017-12-24T13:25:12.693Z,8.10
2017-12-24T13:27:40.169Z,8.10
2017-12-24T13:30:07.742Z,8.10
2017-12-24T13:32:35.173Z,8.10
2017-12-24T13:35:02.633Z,8.10
2017-12-24T13:37:30.065Z,8.10
2017-12-24T13:39:57.591Z,8.10
2017-12-24T13:42:25.829Z,8.10
2017-12-24T13:44:53.261Z,8.10
2017-12-24T13:47:20.853Z,8.10
2017-12-24T13:49:48.317Z,8.10
2017-12-24T13:52:15.821Z,8.10
2017-12-24T13:54:43.250Z,8.10
2017-12-24T13:57:11.463Z,8.10
2017-12-24T13:59:38.925Z,8.10
2017-12-24T14:02:19.141Z,8.10
2017-12-24T14:04:47.369Z,8.10
2017-12-24T14:07:14.811Z,8.10
2017-12-24T14:09:42.277Z,8.10
2017-12-24T14:12:09.711Z,8.10
2017-12-24T14:14:37.278Z,8.10
2017-12-24T14:17:05.700Z,8.10
2017-12-24T14:19:33.132Z,8.10
2017-12-24T14:22:00.636Z,8.10
2017-12-24T14:24:28.093Z,8.10
2017-12-24T14:26:55.779Z,8.10
2017-12-24T14:29:24.001Z,8.10
2017-12-24T14:31:57.519Z,8.10
2017-12-24T14:34:25.070Z,8.10
2017-12-24T14:36:52.528Z,8.10
2017-12-24T14:39:19.957Z,8.10
2017-12-24T14:41:47.520Z,8.10
2017-12-24T14:44:14.969Z,8.10
2017-12-24T14:46:42.403Z,8.10
2017-12-24T14:49:10.625Z,8.10
2017-12-24T14:51:38.114Z,8.10
2017-12-24T14:54:05.562Z,8.10
2017-12-24T14:56:32.985Z,8.10
2017-12-24T14:59:00.592Z,8.10
2017-12-24T15:01:28.806Z,8.10
2017-12-24T15:03:56.281Z,8.00
2017-12-24T15:06:23.816Z,8.10
2017-12-24T15:08:51.250Z,8.10
2017-12-24T15:11:19.454Z,8.00
2017-12-24T15:13:47.044Z,8.00
2017-12-24T15:16:14.519Z,8.00
2017-12-24T15:18:41.953Z,8.10
2017-12-24T15:21:09.395Z,8.00
2017-12-24T15:23:37.291Z,8.00
2017-12-24T15:26:04.730Z,8.10
2017-12-24T15:28:32.937Z,8.10
2017-12-24T15:31:00.570Z,8.00
2017-12-24T15:33:28.020Z,8.10
2017-12-24T15:35:55.436Z,8.10
2017-12-24T15:38:23.813Z,8.10
2017-12-24T15:41:02.083Z,8.10
2017-12-24T15:43:29.621Z,8.10
2017-12-24T15:45:57.125Z,8.10
2017-12-24T15:48:24.585Z,8.10
2017-12-24T15:50:52.017Z,8.10
2017-12-24T15:53:19.477Z,8.10
2017-12-24T15:55:46.932Z,8.10
2017-12-24T15:58:14.362Z,8.10
2017-12-24T16:00:41.938Z,8.10
2017-12-24T16:03:13.413Z,8.10
2017-12-24T16:05:40.850Z,8.00
2017-12-24T16:08:08.441Z,8.00
2017-12-24T16:10:35.872Z,8.00
2017-12-24T16:13:03.336Z,8.00
2017-12-24T16:15:44.565Z,8.00
2017-12-24T16:18:12.016Z,8.00
2017-12-24T16:20:40.210Z,8.00
2017-12-24T16:23:08.108Z,8.00
2017-12-24T16:25:35.539Z,8.00
2017-12-24T16:28:02.974Z,8.00
2017-12-24T16:30:31.233Z,8.00
2017-12-24T16:32:58.666Z,8.00
2017-12-24T16:35:26.097Z,8.00
2017-12-24T16:37:53.553Z,7.90
2017-12-24T16:40:20.984Z,7.90
2017-12-24T16:42:48.417Z,7.90
2017-12-24T16:45:16.148Z,7.90
2017-12-24T16:47:43.586Z,8.00
2017-12-24T16:50:11.072Z,7.90
2017-12-24T16:52:38.516Z,7.90
2017-12-24T16:55:05.944Z,7.90
2017-12-24T16:57:33.416Z,7.90
2017-12-24T17:00:00.922Z,7.90
2017-12-24T17:02:28.358Z,7.90
2017-12-24T17:04:55.983Z,7.90
2017-12-24T17:07:23.415Z,7.90
2017-12-24T17:09:51.609Z,7.90
2017-12-24T17:12:19.065Z,7.90
2017-12-24T17:14:46.495Z,8.00
2017-12-24T17:17:14.725Z,7.90
2017-12-24T17:19:42.180Z,7.90
2017-12-24T17:22:09.613Z,7.90
2017-12-24T17:24:37.153Z,7.90
2017-12-24T17:27:05.528Z,7.90
2017-12-24T17:29:33.741Z,7.90
2017-12-24T17:32:01.177Z,7.90
2017-12-24T17:34:28.732Z,7.90
2017-12-24T17:36:56.991Z,7.90
2017-12-24T17:39:24.424Z,7.90
2017-12-24T17:41:51.862Z,7.90
2017-12-24T17:44:19.354Z,7.90
2017-12-24T17:46:46.802Z,7.90
2017-12-24T17:49:14.236Z,7.90
2017-12-24T17:51:41.838Z,7.90
2017-12-24T17:54:09.333Z,7.90
2017-12-24T17:56:36.769Z,7.90
2017-12-24T17:59:04.961Z,7.90
2017-12-24T18:01:32.427Z,7.90
2017-12-24T18:03:59.900Z,7.90
2017-12-24T18:06:27.346Z,7.90
2017-12-24T18:08:54.780Z,7.90
2017-12-24T18:11:23.045Z,7.90
2017-12-24T18:13:51.244Z,7.90
2017-12-24T18:16:18.708Z,7.90
2017-12-24T18:18:46.133Z,7.90
2017-12-24T18:21:14.384Z,8.00
2017-12-24T18:23:41.816Z,7.90
2017-12-24T18:26:09.249Z,8.00
2017-12-24T18:28:37.161Z,8.00
2017-12-24T18:31:04.599Z,8.00
2017-12-24T18:33:32.077Z,8.00
2017-12-24T18:35:59.630Z,8.00
2017-12-24T18:38:27.061Z,8.00
2017-12-24T18:40:54.517Z,8.10
2017-12-24T18:43:21.949Z,8.10
2017-12-24T18:45:50.277Z,8.00
2017-12-24T18:48:18.700Z,8.00
2017-12-24T18:50:46.898Z,8.00
2017-12-24T18:53:14.424Z,8.00
2017-12-24T18:55:42.620Z,8.00
2017-12-24T18:58:22.829Z,8.00
2017-12-24T19:00:50.265Z,8.00
2017-12-24T19:03:17.708Z,8.00
2017-12-24T19:05:45.501Z,8.00
2017-12-24T19:08:12.929Z,8.00
2017-12-24T19:10:40.355Z,8.00
2017-12-24T19:13:08.656Z,8.00
2017-12-24T19:15:36.125Z,8.00
2017-12-24T19:18:03.549Z,8.00
2017-12-24T19:20:31.781Z,8.00
2017-12-24T19:22:59.219Z,8.00
2017-12-24T19:25:35.623Z,8.00
2017-12-24T19:28:03.087Z,8.00
2017-12-24T19:30:35.637Z,8.00
2017-12-24T19:35:59.589Z,8.00
2017-12-24T19:38:27.781Z,8.00
2017-12-24T19:40:58.254Z,8.00
2017-12-24T19:43:25.720Z,8.00
2017-12-24T19:45:53.166Z,8.00
2017-12-24T19:48:20.705Z,8.00
2017-12-24T19:50:48.143Z,8.00
2017-12-24T19:53:15.659Z,8.00
2017-12-24T19:55:43.117Z,7.90
2017-12-24T19:58:10.555Z,7.90
2017-12-24T20:00:38.066Z,7.90
2017-12-24T20:03:05.496Z,7.90
2017-12-24T20:05:34.981Z,7.90
2017-12-24T20:08:02.429Z,7.90
2017-12-24T20:10:29.870Z,7.90
2017-12-24T20:12:58.340Z,7.90
2017-12-24T20:15:25.826Z,7.90
2017-12-24T20:17:53.257Z,7.90
2017-12-24T20:20:21.052Z,7.90
2017-12-24T20:22:48.488Z,7.90
2017-12-24T20:25:15.930Z,7.90
2017-12-24T20:27:59.481Z,7.90
2017-12-24T20:30:26.941Z,7.90
2017-12-24T20:32:54.444Z,7.90
2017-12-24T20:35:21.923Z,7.90
2017-12-24T20:37:49.372Z,7.90
2017-12-24T20:40:17.666Z,7.90
2017-12-24T20:42:45.097Z,7.90
2017-12-24T20:45:13.293Z,7.80
2017-12-24T20:47:40.851Z,7.80
2017-12-24T20:50:09.053Z,7.80
2017-12-24T20:52:36.509Z,7.80
2017-12-24T20:55:04.926Z,7.80
2017-12-24T20:57:32.381Z,7.80
2017-12-24T20:59:59.814Z,7.80
2017-12-24T21:02:27.477Z,7.80
2017-12-24T21:04:54.915Z,7.80
2017-12-24T21:07:23.610Z,7.80
2017-12-24T21:09:51.046Z,7.80
2017-12-24T21:12:18.518Z,7.80
2017-12-24T21:14:45.945Z,7.80
2017-12-24T21:17:14.314Z,7.70
2017-12-24T21:19:45.837Z,7.70
2017-12-24T21:22:15.760Z,7.80
2017-12-24T21:24:50.473Z,7.80
2017-12-24T21:27:18.068Z,7.70
2017-12-24T21:29:46.285Z,7.70
2017-12-24T21:32:13.790Z,7.70
2017-12-24T21:34:41.275Z,7.70
2017-12-24T21:37:09.487Z,7.80
2017-12-24T21:39:37.036Z,7.70
2017-12-24T21:42:04.464Z,7.70
2017-12-24T21:44:32.668Z,7.70
2017-12-24T21:47:00.215Z,7.70
2017-12-24T21:49:27.652Z,7.70
2017-12-24T21:51:55.855Z,7.70
2017-12-24T21:54:23.318Z,7.70
2017-12-24T21:56:50.749Z,7.70
2017-12-24T21:59:19.125Z,7.70
2017-12-24T22:01:47.580Z,7.70
2017-12-24T22:04:15.014Z,7.70
2017-12-24T22:06:42.457Z,7.70
2017-12-24T22:09:09.933Z,7.70
2017-12-24T22:11:37.414Z,7.70
2017-12-24T22:14:04.852Z,7.70
2017-12-24T22:16:32.292Z,7.70
2017-12-24T22:19:00.065Z,7.70
2017-12-24T22:21:27.502Z,7.70
2017-12-24T22:23:55.155Z,7.70
2017-12-24T22:26:22.592Z,7.70
2017-12-24T22:29:03.714Z,7.70
2017-12-24T22:31:31.202Z,7.70
2017-12-24T22:33:58.769Z,7.70
2017-12-24T22:36:26.289Z,7.70
2017-12-24T22:38:53.749Z,7.70
2017-12-24T22:41:27.980Z,7.70
2017-12-24T22:43:55.449Z,7.70
2017-12-24T22:46:22.889Z,7.70
2017-12-24T22:48:50.432Z,7.70
2017-12-24T22:51:17.872Z,7.70
2017-12-24T22:53:45.308Z,7.70
2017-12-24T22:56:13.533Z,7.60
2017-12-24T22:58:41.929Z,7.70
2017-12-24T23:01:09.394Z,7.60
2017-12-24T23:03:36.828Z,7.60
2017-12-24T23:06:04.470Z,7.60
2017-12-24T23:08:31.901Z,7.60
2017-12-24T23:11:00.225Z,7.60
2017-12-24T23:13:27.666Z,7.60
2017-12-24T23:15:55.097Z,7.60
2017-12-24T23:18:23.317Z,7.60
2017-12-24T23:20:51.084Z,7.70
2017-12-24T23:23:18.524Z,7.60
2017-12-24T23:25:46.097Z,7.60
2017-12-24T23:28:14.488Z,7.60
2017-12-24T23:30:41.928Z,7.60
2017-12-24T23:33:09.388Z,7.60
2017-12-24T23:35:36.892Z,7.60
2017-12-24T23:38:05.105Z,7.60
2017-12-24T23:40:32.552Z,7.60
2017-12-24T23:43:00.015Z,7.60
2017-12-24T23:45:27.441Z,7.60
2017-12-24T23:47:55.686Z,7.60
2017-12-24T23:50:23.113Z,7.60
2017-12-24T23:52:54.513Z,7.60
2017-12-24T23:55:22.144Z,7.60
2017-12-24T23:57:49.584Z,7.60
